Time;durP1;ratioP1;P1;durP2;ratioP2;P2;SDS_P1;SDS_P2;PMS_P1;PMS_P2;Temp;Humidity;BMP_temperature;BMP_pressure;BME280_temperature;BME280_humidity;BME280_pressure;Samples;Min_cycle;Max_cycle;Signal;HPM_P1;HPM_P2
2021/09/24 00:01:45;;;;;;;32.40;8.07;;;12.20;99.90;;;;;;5000970;28;20412;-80
2021/09/24 00:04:12;;;;;;;36.03;8.97;;;12.20;99.90;;;;;;4997696;28;20442;-82
2021/09/24 00:06:42;;;;;;;33.55;8.25;;;12.20;99.90;;;;;;4997114;28;20376;-80
2021/09/24 00:09:08;;;;;;;36.08;9.05;;;12.20;99.90;;;;;;4991384;28;20471;-82
2021/09/24 00:11:35;;;;;;;32.47;8.20;;;12.20;99.90;;;;;;4992788;28;20844;-81
2021/09/24 00:14:01;;;;;;;36.70;8.30;;;12.20;99.90;;;;;;4993178;28;20793;-82
2021/09/24 00:16:26;;;;;;;30.58;8.68;;;12.20;99.90;;;;;;4993085;28;20401;-82
2021/09/24 00:18:52;;;;;;;28.83;7.93;;;12.10;99.90;;;;;;4992400;28;20409;-79
2021/09/24 00:21:18;;;;;;;33.05;8.50;;;12.10;99.90;;;;;;4992773;28;21001;-81
2021/09/24 00:23:44;;;;;;;36.13;8.50;;;12.10;99.90;;;;;;4992879;28;20385;-85
2021/09/24 00:26:09;;;;;;;34.83;9.25;;;12.00;99.90;;;;;;4992648;28;20727;-80
2021/09/24 00:28:35;;;;;;;36.13;8.82;;;12.00;99.90;;;;;;4992297;28;20430;-87
2021/09/24 00:31:00;;;;;;;34.10;9.30;;;12.00;99.90;;;;;;4992347;28;20401;-82
2021/09/24 00:33:27;;;;;;;41.05;8.85;;;12.00;99.90;;;;;;4992661;28;20385;-78
2021/09/24 00:35:55;;;;;;;38.65;9.07;;;11.90;99.90;;;;;;4991740;28;20384;-83
2021/09/24 00:38:21;;;;;;;33.90;8.60;;;12.00;99.90;;;;;;4992218;28;20416;-79
2021/09/24 00:40:47;;;;;;;33.90;8.35;;;11.90;99.90;;;;;;4991813;28;20388;-81
2021/09/24 00:43:12;;;;;;;37.20;9.13;;;11.90;99.90;;;;;;4974919;28;20381;-80
2021/09/24 00:45:38;;;;;;;28.45;8.48;;;11.80;99.90;;;;;;4990979;28;20385;-79
2021/09/24 00:48:04;;;;;;;32.10;8.70;;;11.80;99.90;;;;;;4992075;28;20906;-80
2021/09/24 00:50:30;;;;;;;34.07;8.57;;;11.80;99.90;;;;;;4992126;28;20743;-84
2021/09/24 00:52:55;;;;;;;32.30;8.27;;;11.80;99.90;;;;;;4992283;28;20910;-84
2021/09/24 00:55:22;;;;;;;30.73;7.97;;;11.70;99.90;;;;;;4990931;28;20385;-81
2021/09/24 00:57:48;;;;;;;38.60;8.48;;;11.70;99.90;;;;;;4991816;28;20391;-82
2021/09/24 01:00:14;;;;;;;33.60;8.35;;;11.60;99.90;;;;;;4992262;28;20388;-82
2021/09/24 01:02:40;;;;;;;35.53;8.00;;;11.70;99.90;;;;;;4991859;28;20487;-78
2021/09/24 01:05:09;;;;;;;33.92;8.20;;;11.70;99.90;;;;;;4991640;28;20846;-82
2021/09/24 01:07:40;;;;;;;29.85;7.57;;;11.80;99.90;;;;;;4990704;28;20531;-80
2021/09/24 01:10:06;;;;;;;32.30;7.93;;;11.80;99.90;;;;;;4983247;28;20392;-83
2021/09/24 01:12:34;;;;;;;31.70;8.48;;;11.70;99.90;;;;;;4991945;28;20384;-87
2021/09/24 01:15:09;;;;;;;35.13;8.23;;;11.70;99.90;;;;;;4990324;28;20875;-80
2021/09/24 01:17:35;;;;;;;31.33;7.65;;;11.70;99.90;;;;;;4990283;28;20401;-82
2021/09/24 01:20:02;;;;;;;31.73;7.82;;;11.80;99.90;;;;;;4991368;28;20369;-85
2021/09/24 01:22:27;;;;;;;33.72;7.75;;;11.70;99.90;;;;;;4991590;28;21134;-85
2021/09/24 01:24:53;;;;;;;34.37;9.00;;;11.70;99.90;;;;;;4990304;28;20389;-83
2021/09/24 01:27:19;;;;;;;30.17;7.83;;;11.70;99.90;;;;;;4991670;28;20403;-79
2021/09/24 01:29:50;;;;;;;36.22;7.78;;;11.60;99.90;;;;;;4991362;28;20376;-80
2021/09/24 01:32:16;;;;;;;27.95;7.90;;;11.60;99.90;;;;;;4989884;28;20391;-81
2021/09/24 01:34:41;;;;;;;33.20;8.43;;;11.60;99.90;;;;;;4991484;28;20377;-84
2021/09/24 01:37:07;;;;;;;36.10;8.18;;;11.60;99.90;;;;;;4991182;28;20846;-81
2021/09/24 01:39:32;;;;;;;33.97;8.37;;;11.60;99.90;;;;;;4991305;28;20385;-82
2021/09/24 01:41:58;;;;;;;35.40;8.25;;;11.70;99.90;;;;;;4991066;28;20416;-79
2021/09/24 01:44:24;;;;;;;34.70;7.87;;;11.70;99.90;;;;;;4991412;28;20875;-82
2021/09/24 01:46:49;;;;;;;29.77;7.97;;;11.70;99.90;;;;;;4991133;28;20375;-82
2021/09/24 01:49:15;;;;;;;30.83;7.67;;;11.80;99.90;;;;;;4991320;28;20381;-78
2021/09/24 01:51:44;;;;;;;32.43;8.00;;;11.90;99.90;;;;;;4990888;28;20384;-80
2021/09/24 01:54:11;;;;;;;32.60;8.23;;;11.90;99.90;;;;;;4991395;28;20389;-81
2021/09/24 01:56:37;;;;;;;31.27;7.93;;;12.00;99.90;;;;;;4990817;28;20405;-85
2021/09/24 01:59:04;;;;;;;27.97;7.13;;;11.90;99.90;;;;;;4972921;28;20440;-80
2021/09/24 02:01:29;;;;;;;29.83;7.47;;;11.90;99.90;;;;;;4990994;28;20416;-81
2021/09/24 02:03:55;;;;;;;31.02;7.78;;;11.80;99.90;;;;;;4990557;28;20383;-82
2021/09/24 02:06:20;;;;;;;34.57;7.83;;;11.90;99.90;;;;;;4990881;28;20377;-78
2021/09/24 02:08:46;;;;;;;29.30;8.00;;;11.80;99.90;;;;;;4972912;28;20381;-82
2021/09/24 02:11:12;;;;;;;32.43;8.03;;;11.80;99.90;;;;;;4990747;28;20392;-81
2021/09/24 02:13:38;;;;;;;29.53;7.37;;;11.80;99.90;;;;;;4990608;28;20400;-80
2021/09/24 02:16:05;;;;;;;35.15;8.35;;;11.80;99.90;;;;;;4989406;28;20455;-81
2021/09/24 02:18:30;;;;;;;33.72;8.48;;;11.60;99.90;;;;;;4990342;28;20389;-79
2021/09/24 02:20:56;;;;;;;35.38;7.80;;;11.60;99.90;;;;;;4990089;28;20388;-83
2021/09/24 02:23:21;;;;;;;38.53;8.53;;;11.70;99.90;;;;;;4990603;28;20392;-81
2021/09/24 02:25:47;;;;;;;30.97;8.20;;;11.60;99.90;;;;;;4990522;28;20385;-78
2021/09/24 02:28:13;;;;;;;35.55;8.23;;;11.60;99.90;;;;;;4989988;28;20431;-78
2021/09/24 02:30:39;;;;;;;31.88;8.68;;;11.70;99.90;;;;;;4990239;28;20472;-79
2021/09/24 02:33:05;;;;;;;32.38;8.00;;;11.60;99.90;;;;;;4972314;28;20502;-82
2021/09/24 02:35:30;;;;;;;34.80;8.23;;;11.50;99.90;;;;;;4990424;28;20396;-82
2021/09/24 02:37:56;;;;;;;31.90;7.47;;;11.50;99.90;;;;;;4990261;28;20376;-81
2021/09/24 02:40:22;;;;;;;33.35;7.38;;;11.50;99.90;;;;;;4990110;28;20393;-79
2021/09/24 02:42:48;;;;;;;39.10;8.35;;;11.60;99.90;;;;;;4989944;28;20539;-81
2021/09/24 02:45:13;;;;;;;32.85;7.88;;;11.60;99.90;;;;;;4990032;28;20381;-83
2021/09/24 02:47:39;;;;;;;26.67;7.07;;;11.60;99.90;;;;;;4989998;28;20389;-83
2021/09/24 02:50:06;;;;;;;31.63;7.75;;;11.60;99.90;;;;;;4989918;28;20385;-85
2021/09/24 02:52:32;;;;;;;35.08;8.70;;;11.70;99.90;;;;;;4989997;28;20377;-85
2021/09/24 02:54:58;;;;;;;32.97;7.50;;;11.80;99.90;;;;;;4990061;28;20484;-83
2021/09/24 02:57:23;;;;;;;27.43;7.20;;;11.90;99.90;;;;;;4989664;28;20444;-81
2021/09/24 02:59:49;;;;;;;34.55;7.95;;;12.00;99.90;;;;;;4989271;28;20765;-83
2021/09/24 03:02:15;;;;;;;28.07;6.87;;;12.10;99.90;;;;;;4989130;28;20463;-82
2021/09/24 03:04:40;;;;;;;28.90;7.55;;;12.20;99.90;;;;;;4989919;28;20484;-82
2021/09/24 03:07:06;;;;;;;29.88;7.70;;;12.10;99.90;;;;;;4989846;28;20393;-79
2021/09/24 03:09:31;;;;;;;32.80;7.53;;;12.30;99.90;;;;;;4989634;28;20891;-81
2021/09/24 03:11:57;;;;;;;30.40;7.13;;;12.30;99.90;;;;;;4989913;28;20393;-80
2021/09/24 03:14:23;;;;;;;34.27;7.53;;;12.30;99.90;;;;;;4989557;28;20911;-79
2021/09/24 03:16:49;;;;;;;29.10;7.35;;;12.40;99.90;;;;;;4989177;28;20388;-87
2021/09/24 03:19:19;;;;;;;28.52;7.30;;;12.40;99.90;;;;;;4987926;28;20393;-81
2021/09/24 03:21:45;;;;;;;29.02;7.78;;;12.50;99.90;;;;;;4989409;28;20416;-83
2021/09/24 03:24:10;;;;;;;28.05;7.55;;;12.50;99.90;;;;;;4989498;28;20871;-83
2021/09/24 03:26:36;;;;;;;31.02;8.02;;;12.40;99.90;;;;;;4989007;28;20377;-79
2021/09/24 03:29:03;;;;;;;27.95;7.25;;;12.60;99.90;;;;;;4990076;28;20768;-83
2021/09/24 03:31:28;;;;;;;29.98;7.53;;;12.50;99.90;;;;;;4990221;28;20751;-80
2021/09/24 03:33:54;;;;;;;27.55;7.22;;;12.60;99.90;;;;;;4974984;28;20385;-83
2021/09/24 03:36:19;;;;;;;27.27;7.67;;;12.60;99.90;;;;;;4994752;28;20467;-82
2021/09/24 03:38:45;;;;;;;29.98;7.57;;;12.50;99.90;;;;;;4994437;28;20384;-80
2021/09/24 03:41:11;;;;;;;29.90;6.77;;;12.60;99.90;;;;;;4993749;28;20405;-83
2021/09/24 03:43:37;;;;;;;31.73;8.07;;;12.60;99.90;;;;;;4994361;28;20411;-81
2021/09/24 03:46:02;;;;;;;33.53;8.27;;;12.50;99.90;;;;;;4993667;28;20471;-84
2021/09/24 03:48:28;;;;;;;30.83;7.72;;;12.50;99.90;;;;;;4993465;28;20889;-82
2021/09/24 03:50:53;;;;;;;31.43;7.70;;;12.50;99.90;;;;;;4993865;28;20380;-80
2021/09/24 03:53:19;;;;;;;31.03;7.53;;;12.50;99.90;;;;;;4994108;28;20381;-80
2021/09/24 03:55:45;;;;;;;24.77;6.93;;;12.50;99.90;;;;;;4993951;28;20376;-81
2021/09/24 03:58:10;;;;;;;32.60;8.07;;;12.50;99.90;;;;;;4993845;28;20748;-80
2021/09/24 04:00:36;;;;;;;34.30;8.43;;;12.50;99.90;;;;;;4994039;28;20401;-81
2021/09/24 04:03:02;;;;;;;27.35;7.65;;;12.50;99.90;;;;;;4993777;28;20480;-80
2021/09/24 04:05:27;;;;;;;31.33;7.87;;;12.40;99.90;;;;;;4994181;28;20377;-80
2021/09/24 04:07:53;;;;;;;33.28;8.20;;;12.40;99.90;;;;;;4994395;28;20419;-79
2021/09/24 04:10:19;;;;;;;33.87;7.87;;;12.50;99.90;;;;;;4994318;28;20387;-80
2021/09/24 04:12:44;;;;;;;30.53;7.43;;;12.40;99.90;;;;;;4994534;28;20409;-84
2021/09/24 04:15:11;;;;;;;32.67;7.45;;;12.30;99.90;;;;;;4978479;28;20385;-83
2021/09/24 04:17:36;;;;;;;31.17;8.30;;;12.40;99.90;;;;;;4997630;28;20369;-79
2021/09/24 04:20:03;;;;;;;34.17;8.27;;;12.40;99.90;;;;;;4995780;28;20488;-81
2021/09/24 04:22:29;;;;;;;35.42;7.82;;;12.20;99.90;;;;;;4994047;28;20401;-80
2021/09/24 04:24:54;;;;;;;31.90;7.45;;;12.30;99.90;;;;;;4993438;28;20799;-77
2021/09/24 04:27:20;;;;;;;32.57;7.87;;;12.30;99.90;;;;;;4994186;28;20418;-82
2021/09/24 04:29:46;;;;;;;26.15;7.05;;;12.30;99.90;;;;;;4998149;28;20384;-80
2021/09/24 04:32:13;;;;;;;34.05;7.82;;;12.30;99.90;;;;;;4997736;28;20385;-80
2021/09/24 04:34:38;;;;;;;29.83;7.30;;;12.30;99.90;;;;;;4994016;28;20401;-79
2021/09/24 04:37:04;;;;;;;32.47;7.93;;;12.30;99.90;;;;;;4992418;28;20381;-85
2021/09/24 04:39:30;;;;;;;30.97;8.03;;;12.40;99.90;;;;;;4992115;28;20475;-82
2021/09/24 04:41:56;;;;;;;32.23;7.83;;;12.40;99.90;;;;;;4992053;28;20482;-82
2021/09/24 04:44:21;;;;;;;34.33;7.93;;;12.30;99.90;;;;;;4992070;28;20434;-82
2021/09/24 04:46:48;;;;;;;32.97;7.50;;;12.30;99.90;;;;;;4991943;28;20855;-80
2021/09/24 04:49:14;;;;;;;33.17;7.30;;;12.30;99.90;;;;;;4991452;28;20467;-85
2021/09/24 04:51:40;;;;;;;33.50;7.57;;;12.30;99.90;;;;;;4992065;28;20392;-85
2021/09/24 04:54:05;;;;;;;31.33;7.70;;;12.30;99.90;;;;;;4991645;28;20381;-81
2021/09/24 04:56:31;;;;;;;28.97;7.77;;;12.30;99.90;;;;;;4991681;28;20451;-85
2021/09/24 04:58:56;;;;;;;31.48;8.02;;;12.40;99.90;;;;;;4991419;28;20401;-79
2021/09/24 05:01:22;;;;;;;36.63;7.70;;;12.30;99.90;;;;;;4991753;28;20448;-83
2021/09/24 05:03:47;;;;;;;27.98;8.05;;;12.40;99.90;;;;;;4991025;28;20452;-81
2021/09/24 05:06:13;;;;;;;34.27;8.00;;;12.40;99.90;;;;;;4991752;28;20464;-80
2021/09/24 05:08:39;;;;;;;30.47;7.20;;;12.50;99.90;;;;;;4991443;28;20526;-82
2021/09/24 05:11:04;;;;;;;34.33;7.95;;;12.40;99.90;;;;;;4990886;28;20441;-83
2021/09/24 05:13:30;;;;;;;33.30;7.33;;;12.30;99.90;;;;;;4991671;28;20472;-82
2021/09/24 05:15:55;;;;;;;27.60;7.35;;;12.30;99.90;;;;;;4991596;28;20377;-79
2021/09/24 05:18:21;;;;;;;29.27;7.70;;;12.20;99.90;;;;;;4991541;28;20464;-82
2021/09/24 05:20:47;;;;;;;25.80;7.03;;;12.20;99.90;;;;;;4991172;28;20393;-81
2021/09/24 05:23:12;;;;;;;32.38;7.95;;;12.20;99.90;;;;;;4990770;28;20404;-84
2021/09/24 05:25:38;;;;;;;26.90;7.23;;;12.30;99.90;;;;;;4991207;28;20420;-79
2021/09/24 05:28:04;;;;;;;31.75;7.30;;;12.30;99.90;;;;;;4990861;28;20476;-79
2021/09/24 05:30:29;;;;;;;30.70;7.43;;;12.30;99.90;;;;;;4991686;28;20851;-82
2021/09/24 05:32:55;;;;;;;30.52;7.32;;;12.30;99.90;;;;;;4991422;28;20392;-81
2021/09/24 05:35:22;;;;;;;27.40;7.90;;;12.30;99.90;;;;;;4991173;28;20408;-81
2021/09/24 05:37:47;;;;;;;32.95;7.57;;;12.30;99.90;;;;;;4990916;28;20391;-81
2021/09/24 05:40:13;;;;;;;30.27;7.20;;;12.30;99.90;;;;;;4990843;28;20807;-84
2021/09/24 05:42:39;;;;;;;34.97;8.05;;;12.30;99.90;;;;;;4989728;28;20487;-79
2021/09/24 05:45:07;;;;;;;30.23;8.15;;;12.20;99.90;;;;;;4991408;28;20860;-80
2021/09/24 05:47:33;;;;;;;28.70;7.57;;;12.20;99.90;;;;;;4973143;28;20393;-83
2021/09/24 05:49:58;;;;;;;27.37;7.23;;;12.20;99.90;;;;;;4990751;28;20385;-81
2021/09/24 05:52:24;;;;;;;27.35;7.57;;;12.20;99.90;;;;;;4990491;28;20740;-82
2021/09/24 05:54:49;;;;;;;31.10;7.70;;;12.20;99.90;;;;;;4990622;28;20867;-80
2021/09/24 05:57:15;;;;;;;30.88;7.78;;;12.20;99.90;;;;;;4990004;28;20812;-81
2021/09/24 05:59:40;;;;;;;30.67;8.17;;;12.20;99.90;;;;;;4990536;28;20416;-81
2021/09/24 06:02:06;;;;;;;27.70;7.75;;;12.20;99.90;;;;;;4990295;28;20404;-81
2021/09/24 06:04:32;;;;;;;30.65;7.20;;;12.20;99.90;;;;;;4990930;28;20786;-81
2021/09/24 06:06:57;;;;;;;30.13;8.13;;;12.20;99.90;;;;;;4989770;28;21341;-79
2021/09/24 06:09:23;;;;;;;36.60;8.53;;;12.30;99.90;;;;;;4990880;28;20372;-81
2021/09/24 06:11:48;;;;;;;28.50;7.63;;;12.30;99.90;;;;;;4990338;28;20874;-82
2021/09/24 06:14:14;;;;;;;28.57;7.67;;;12.40;99.90;;;;;;4989815;28;20399;-82
2021/09/24 06:16:40;;;;;;;28.40;7.78;;;12.50;99.90;;;;;;4990292;28;20381;-83
2021/09/24 06:19:06;;;;;;;28.23;7.13;;;12.50;99.90;;;;;;4990162;28;20436;-82
2021/09/24 06:21:34;;;;;;;31.55;7.80;;;12.50;99.90;;;;;;4989562;28;20431;-79
2021/09/24 06:23:59;;;;;;;31.83;7.20;;;12.50;99.90;;;;;;4988862;28;20415;-79
2021/09/24 06:26:25;;;;;;;29.90;7.43;;;12.60;99.90;;;;;;4990496;28;20388;-80
2021/09/24 06:28:51;;;;;;;27.75;6.75;;;12.60;99.90;;;;;;4989224;28;20479;-81
2021/09/24 06:31:16;;;;;;;32.63;7.60;;;12.70;99.90;;;;;;4990121;28;20431;-78
2021/09/24 06:33:42;;;;;;;27.50;7.25;;;12.80;99.90;;;;;;4990144;28;20381;-85
2021/09/24 06:36:08;;;;;;;30.73;7.30;;;12.90;99.90;;;;;;4989823;28;20724;-87
2021/09/24 06:38:33;;;;;;;29.58;7.75;;;13.10;99.90;;;;;;4990132;28;20495;-79
2021/09/24 06:40:59;;;;;;;29.80;7.23;;;13.10;99.90;;;;;;4989685;28;20388;-81
2021/09/24 06:43:25;;;;;;;32.20;7.38;;;13.20;99.90;;;;;;4989672;28;20451;-79
2021/09/24 06:45:50;;;;;;;23.43;6.50;;;13.30;99.90;;;;;;4989412;28;20767;-81
2021/09/24 06:48:16;;;;;;;30.60;7.20;;;13.30;99.90;;;;;;4984889;28;22902;-81
2021/09/24 06:50:41;;;;;;;26.08;7.35;;;13.40;99.90;;;;;;4975427;28;20752;-83
2021/09/24 06:53:07;;;;;;;26.33;7.10;;;13.50;99.90;;;;;;4979931;28;20450;-80
2021/09/24 06:55:33;;;;;;;28.70;7.32;;;13.60;99.90;;;;;;4981078;28;20391;-84
2021/09/24 06:57:59;;;;;;;24.30;6.38;;;13.60;99.90;;;;;;4974877;28;20453;-80
2021/09/24 07:00:26;;;;;;;24.33;6.63;;;13.80;99.90;;;;;;4970285;28;20805;-83
2021/09/24 07:02:52;;;;;;;26.48;6.80;;;14.00;99.90;;;;;;4969934;28;20473;-82
2021/09/24 07:05:17;;;;;;;31.23;7.43;;;14.10;99.90;;;;;;4979358;28;20407;-80
2021/09/24 07:07:44;;;;;;;24.75;6.75;;;14.10;99.90;;;;;;4971877;28;20450;-79
2021/09/24 07:10:11;;;;;;;28.55;7.35;;;14.20;99.90;;;;;;4969705;28;20387;-83
2021/09/24 07:12:37;;;;;;;25.73;6.45;;;14.30;99.90;;;;;;4978333;28;20480;-81
2021/09/24 07:15:03;;;;;;;29.08;7.05;;;14.40;99.90;;;;;;4975140;28;20426;-79
2021/09/24 07:17:28;;;;;;;26.30;7.23;;;14.50;99.90;;;;;;4969702;28;20425;-82
2021/09/24 07:19:56;;;;;;;23.77;6.60;;;14.70;99.90;;;;;;4975433;28;20390;-82
2021/09/24 07:22:22;;;;;;;24.85;6.90;;;14.90;99.90;;;;;;4968512;28;20948;-83
2021/09/24 07:24:49;;;;;;;24.67;7.50;;;15.10;99.90;;;;;;4969746;28;20481;-80
2021/09/24 07:27:15;;;;;;;26.65;6.70;;;15.10;99.90;;;;;;4979380;28;20538;-80
2021/09/24 07:29:41;;;;;;;27.43;6.80;;;15.20;99.90;;;;;;4972120;28;20504;-79
2021/09/24 07:32:07;;;;;;;24.52;6.35;;;15.20;99.90;;;;;;4969965;28;20464;-81
2021/09/24 07:34:33;;;;;;;25.05;7.18;;;15.30;99.90;;;;;;4985548;28;20383;-81
2021/09/24 07:36:59;;;;;;;25.45;7.03;;;15.50;99.90;;;;;;4995129;28;20401;-81
2021/09/24 07:39:24;;;;;;;23.60;7.27;;;15.60;99.90;;;;;;4978623;28;20401;-81
2021/09/24 07:41:50;;;;;;;27.42;6.50;;;15.70;99.90;;;;;;4979488;28;20409;-77
2021/09/24 07:44:15;;;;;;;26.50;7.60;;;15.90;99.90;;;;;;4969232;28;20437;-79
2021/09/24 07:46:41;;;;;;;29.95;7.70;;;16.00;99.90;;;;;;4969399;28;20518;-79
2021/09/24 07:49:08;;;;;;;24.70;7.17;;;16.10;99.90;;;;;;4969699;28;20398;-81
2021/09/24 07:51:33;;;;;;;28.08;7.22;;;15.90;99.90;;;;;;4969266;28;20378;-81
2021/09/24 07:53:59;;;;;;;21.57;6.97;;;16.00;99.90;;;;;;4976961;28;20388;-80
2021/09/24 07:56:25;;;;;;;28.30;7.07;;;16.10;99.90;;;;;;4971044;28;20446;-84
2021/09/24 07:58:51;;;;;;;27.40;7.10;;;16.00;99.90;;;;;;4969039;28;20383;-80
2021/09/24 08:01:17;;;;;;;20.40;6.40;;;16.10;99.90;;;;;;4968884;28;20386;-81
2021/09/24 08:03:43;;;;;;;27.02;7.22;;;16.30;99.90;;;;;;4967517;28;20648;-79
2021/09/24 08:06:09;;;;;;;26.80;6.90;;;16.30;99.90;;;;;;4967736;28;20477;-80
2021/09/24 08:08:35;;;;;;;25.67;6.83;;;16.30;99.90;;;;;;4974614;28;20476;-79
2021/09/24 08:11:01;;;;;;;26.13;6.47;;;16.30;99.90;;;;;;4976286;28;20878;-81
2021/09/24 08:13:26;;;;;;;23.80;6.63;;;16.30;99.90;;;;;;4976156;28;20390;-78
2021/09/24 08:15:55;;;;;;;26.33;7.20;;;16.50;99.90;;;;;;4986307;28;20399;-83
2021/09/24 08:18:21;;;;;;;24.02;6.53;;;16.60;99.90;;;;;;4951076;28;20394;-81
2021/09/24 08:20:48;;;;;;;24.73;6.75;;;16.70;99.90;;;;;;4974929;28;20458;-84
2021/09/24 08:23:14;;;;;;;27.50;7.55;;;16.70;99.90;;;;;;4972633;28;20418;-81
2021/09/24 08:25:40;;;;;;;24.55;6.50;;;16.70;99.90;;;;;;4979898;28;20420;-79
2021/09/24 08:28:06;;;;;;;22.52;6.72;;;16.60;99.90;;;;;;4975512;28;20737;-81
2021/09/24 08:30:32;;;;;;;22.08;6.53;;;16.60;99.90;;;;;;4973822;28;20470;-84
2021/09/24 08:33:00;;;;;;;22.52;6.07;;;16.70;99.90;;;;;;4979041;28;20388;-83
2021/09/24 08:35:26;;;;;;;24.33;6.47;;;16.90;99.90;;;;;;4980664;28;20383;-80
2021/09/24 08:37:52;;;;;;;20.87;6.73;;;17.10;99.90;;;;;;4985920;28;20404;-80
2021/09/24 08:40:20;;;;;;;24.40;5.78;;;17.30;99.90;;;;;;4988615;28;20471;-80
2021/09/24 08:42:46;;;;;;;25.60;6.25;;;17.10;99.90;;;;;;4987629;28;20413;-80
2021/09/24 08:45:24;;;;;;;26.15;6.10;;;17.20;99.90;;;;;;4987415;28;20416;-82
2021/09/24 08:47:51;;;;;;;25.48;6.55;;;17.20;99.90;;;;;;4980470;28;20413;-83
2021/09/24 08:50:17;;;;;;;24.42;6.53;;;17.30;99.90;;;;;;4985308;28;20757;-81
2021/09/24 08:52:43;;;;;;;27.20;6.55;;;17.30;99.90;;;;;;4985501;28;20395;-80
2021/09/24 08:55:10;;;;;;;23.95;6.05;;;17.20;99.90;;;;;;4982411;28;20475;-81
2021/09/24 08:57:36;;;;;;;23.90;6.25;;;17.30;99.90;;;;;;4991668;28;20407;-84
2021/09/24 09:00:06;;;;;;;19.55;5.50;;;17.40;99.90;;;;;;4982838;28;20389;-82
2021/09/24 09:02:55;;;;;;;26.75;6.40;;;17.40;99.90;;;;;;4990860;28;20834;-83
2021/09/24 09:05:21;;;;;;;25.27;5.93;;;17.70;99.90;;;;;;4992026;28;20377;-81
2021/09/24 09:07:47;;;;;;;20.55;5.35;;;17.70;99.90;;;;;;4991714;28;20381;-81
2021/09/24 09:10:14;;;;;;;23.23;6.30;;;17.90;99.90;;;;;;4990627;28;20950;-83
2021/09/24 09:12:40;;;;;;;21.75;5.57;;;18.00;99.90;;;;;;4990200;28;20831;-82
2021/09/24 09:15:12;;;;;;;24.20;6.03;;;18.10;99.90;;;;;;4973340;28;20413;-80
2021/09/24 09:17:47;;;;;;;23.75;6.00;;;18.50;99.90;;;;;;4985967;28;20445;-83
2021/09/24 09:20:19;;;;;;;27.95;6.32;;;18.60;99.90;;;;;;4983760;28;20488;-83
2021/09/24 09:22:50;;;;;;;19.63;5.63;;;18.70;99.90;;;;;;4989540;28;20412;-82
2021/09/24 09:25:24;;;;;;;24.70;6.07;;;18.80;99.90;;;;;;4990647;28;20404;-80
2021/09/24 09:27:52;;;;;;;21.23;5.63;;;18.60;99.90;;;;;;4991138;28;20372;-81
2021/09/24 09:30:19;;;;;;;23.50;5.47;;;18.30;99.90;;;;;;4972218;28;21471;-85
2021/09/24 09:33:15;;;;;;;17.45;5.40;;;18.20;99.90;;;;;;4991488;28;20505;-81
2021/09/24 09:35:57;;;;;;;28.35;6.30;;;18.20;99.90;;;;;;4991251;28;20396;-81
2021/09/24 09:38:23;;;;;;;22.10;5.83;;;18.00;99.90;;;;;;4989597;28;20459;-85
2021/09/24 09:40:53;;;;;;;22.92;5.85;;;18.00;99.90;;;;;;4991654;28;20859;-84
2021/09/24 09:43:32;;;;;;;18.42;5.25;;;18.00;99.90;;;;;;4990221;28;20415;-81
2021/09/24 09:46:00;;;;;;;22.58;5.90;;;18.20;99.90;;;;;;4978070;28;20406;-82
2021/09/24 09:48:25;;;;;;;24.15;6.15;;;18.10;99.90;;;;;;4971490;28;20369;-82
2021/09/24 09:50:51;;;;;;;23.70;6.43;;;18.10;99.90;;;;;;4985200;28;20862;-87
2021/09/24 09:53:18;;;;;;;21.83;6.20;;;18.00;99.90;;;;;;4990734;28;20487;-84
2021/09/24 09:55:53;;;;;;;25.13;5.57;;;17.90;99.90;;;;;;4983049;28;20552;-82
2021/09/24 09:58:22;;;;;;;23.10;5.72;;;17.90;99.90;;;;;;4980888;28;20422;-83
2021/09/24 10:01:08;;;;;;;18.90;5.82;;;18.00;99.90;;;;;;4980512;28;20404;-84
2021/09/24 10:03:41;;;;;;;23.27;5.72;;;18.40;99.90;;;;;;4981255;28;20392;-83
2021/09/24 10:06:32;;;;;;;24.58;5.97;;;18.50;99.90;;;;;;4983752;28;20392;-82
2021/09/24 10:09:00;;;;;;;22.48;5.72;;;18.80;99.90;;;;;;4987024;28;21139;-81
2021/09/24 10:11:34;;;;;;;19.75;5.60;;;18.60;99.90;;;;;;4979759;28;20386;-82
2021/09/24 10:14:05;;;;;;;22.38;5.53;;;18.30;99.90;;;;;;4997790;28;20385;-84
2021/09/24 10:16:37;;;;;;;17.33;4.80;;;18.40;99.90;;;;;;4988689;28;20404;-81
2021/09/24 10:19:03;;;;;;;17.23;5.53;;;18.40;99.90;;;;;;4977643;28;20518;-81
2021/09/24 10:21:28;;;;;;;17.60;4.55;;;18.30;99.90;;;;;;4980740;28;20503;-81
2021/09/24 10:23:57;;;;;;;15.65;4.97;;;18.50;99.90;;;;;;4971215;28;20883;-83
2021/09/24 10:26:29;;;;;;;18.05;4.63;;;18.70;99.90;;;;;;4981522;28;20395;-78
2021/09/24 10:29:03;;;;;;;18.50;5.00;;;18.70;99.90;;;;;;4983849;28;20393;-84
2021/09/24 10:31:39;;;;;;;16.67;3.97;;;18.80;99.90;;;;;;4983089;28;20475;-83
2021/09/24 10:34:06;;;;;;;13.85;3.67;;;19.00;99.90;;;;;;4980971;28;20480;-83
2021/09/24 10:36:49;;;;;;;14.15;3.72;;;18.90;99.90;;;;;;4980077;28;20421;-82
2021/09/24 10:39:29;;;;;;;13.43;3.67;;;18.70;99.90;;;;;;4984365;28;20524;-82
2021/09/24 10:42:29;;;;;;;14.38;3.90;;;18.60;99.90;;;;;;4985743;28;20439;-79
2021/09/24 10:45:13;;;;;;;13.77;3.93;;;18.70;99.90;;;;;;4963182;28;20383;-84
2021/09/24 10:47:44;;;;;;;14.38;4.35;;;18.70;99.90;;;;;;4980536;28;20389;-85
2021/09/24 10:50:39;;;;;;;13.52;3.83;;;18.50;99.90;;;;;;4983000;28;20442;-79
2021/09/24 10:53:10;;;;;;;15.43;3.58;;;18.40;99.90;;;;;;4980662;28;20397;-84
2021/09/24 10:55:52;;;;;;;13.65;3.70;;;18.40;99.90;;;;;;4969111;28;20427;-80
2021/09/24 10:58:26;;;;;;;16.40;4.32;;;18.30;99.90;;;;;;4986467;28;20443;-80
2021/09/24 11:01:08;;;;;;;15.23;3.95;;;18.20;99.90;;;;;;4981321;28;20398;-82
2021/09/24 11:03:55;;;;;;;13.43;3.83;;;18.20;99.90;;;;;;4981926;28;20425;-83
2021/09/24 11:06:44;;;;;;;15.27;3.75;;;18.30;99.90;;;;;;4986338;28;20851;-80
2021/09/24 11:09:13;;;;;;;12.38;3.63;;;18.40;99.90;;;;;;4985043;28;20396;-84
2021/09/24 11:11:59;;;;;;;11.85;2.85;;;18.50;99.90;;;;;;4994216;28;20479;-82
2021/09/24 11:14:30;;;;;;;10.45;3.45;;;18.80;99.90;;;;;;4980111;28;20454;-81
2021/09/24 11:16:57;;;;;;;14.23;4.53;;;18.60;99.90;;;;;;4978911;28;20377;-81
2021/09/24 11:19:52;;;;;;;9.70;3.20;;;18.50;99.90;;;;;;4982489;28;20409;-78
2021/09/24 11:22:24;;;;;;;10.48;3.13;;;18.30;99.90;;;;;;4947763;28;20410;-80
2021/09/24 11:24:59;;;;;;;11.18;3.35;;;18.40;99.90;;;;;;4980058;28;20397;-80
2021/09/24 11:27:39;;;;;;;14.63;3.22;;;18.60;99.90;;;;;;4979200;28;20416;-80
2021/09/24 11:30:05;;;;;;;11.02;2.47;;;18.50;99.90;;;;;;4979122;28;20392;-82
2021/09/24 11:32:33;;;;;;;10.80;2.87;;;18.40;99.90;;;;;;4978833;28;20393;-82
2021/09/24 11:34:59;;;;;;;9.37;2.50;;;18.30;99.90;;;;;;4978186;28;20420;-82
2021/09/24 11:37:28;;;;;;;6.47;2.20;;;18.20;99.90;;;;;;4974289;28;20386;-81
2021/09/24 11:40:00;;;;;;;9.68;2.10;;;18.20;99.90;;;;;;4969760;28;20850;-81
2021/09/24 11:42:27;;;;;;;6.72;2.03;;;18.40;99.90;;;;;;4968773;28;20410;-80
2021/09/24 11:44:55;;;;;;;6.60;1.95;;;18.50;99.90;;;;;;4970009;28;20374;-82
2021/09/24 11:47:25;;;;;;;6.05;2.05;;;18.60;99.90;;;;;;4936582;28;20951;-79
2021/09/24 11:49:59;;;;;;;5.93;2.08;;;18.80;99.90;;;;;;4968202;28;20465;-81
2021/09/24 11:52:54;;;;;;;5.18;1.83;;;18.90;99.90;;;;;;4951961;28;20472;-79
2021/09/24 11:55:22;;;;;;;6.57;2.10;;;18.80;99.90;;;;;;4970896;28;20422;-77
2021/09/24 11:57:55;;;;;;;9.48;2.60;;;18.70;99.90;;;;;;4972884;28;20833;-77
2021/09/24 12:00:22;;;;;;;5.75;2.00;;;18.60;99.90;;;;;;5001140;28;20392;-83
2021/09/24 12:02:47;;;;;;;7.65;2.03;;;18.50;99.90;;;;;;4991196;28;20416;-82
2021/09/24 12:05:14;;;;;;;6.93;2.10;;;18.40;99.90;;;;;;4988379;28;20412;-78
2021/09/24 12:07:50;;;;;;;5.05;1.92;;;18.60;99.90;;;;;;4990700;28;20409;-81
2021/09/24 12:10:25;;;;;;;10.18;2.20;;;18.70;99.90;;;;;;4991767;28;20377;-84
2021/09/24 12:12:51;;;;;;;8.10;2.53;;;18.80;99.90;;;;;;4990061;28;20451;-79
2021/09/24 12:15:16;;;;;;;5.93;2.17;;;19.00;99.90;;;;;;4991263;28;20879;-82
2021/09/24 12:17:42;;;;;;;9.00;2.30;;;19.00;99.90;;;;;;4973651;28;20858;-82
2021/09/24 12:20:07;;;;;;;6.75;2.08;;;18.80;99.90;;;;;;4990417;28;20397;-81
2021/09/24 12:22:33;;;;;;;6.50;2.20;;;18.70;99.90;;;;;;4991635;28;20505;-79
2021/09/24 12:24:58;;;;;;;9.55;2.35;;;18.70;99.90;;;;;;4991995;28;20735;-81
2021/09/24 12:27:31;;;;;;;6.93;2.00;;;18.70;99.90;;;;;;4991098;28;20476;-84
2021/09/24 12:30:20;;;;;;;4.75;1.70;;;18.80;99.90;;;;;;4984274;28;21147;-82
2021/09/24 12:32:46;;;;;;;6.60;2.00;;;18.90;99.90;;;;;;4965627;28;20921;-81
2021/09/24 12:35:12;;;;;;;6.25;1.63;;;19.00;99.90;;;;;;4985256;28;20432;-78
2021/09/24 12:37:41;;;;;;;6.73;2.00;;;19.50;99.90;;;;;;4981507;28;21009;-78
2021/09/24 12:40:11;;;;;;;6.72;1.83;;;19.70;99.90;;;;;;4980973;28;20373;-81
2021/09/24 12:42:55;;;;;;;7.50;2.10;;;19.80;99.90;;;;;;4965135;28;20424;-82